Time;durP1;ratioP1;P1;durP2;ratioP2;P2;SDS_P1;SDS_P2;PMS_P1;PMS_P2;Temp;Humidity;BMP_temperature;BMP_pressure;BME280_temperature;BME280_humidity;BME280_pressure;Samples;Min_cycle;Max_cycle;Signal;HPM_P1;HPM_P2
2022/10/07 04:07:44;;;;;;;5.17;2.63;;;13.30;99.90;;;;;;4973397;28;20493;-64
2022/10/07 04:10:12;;;;;;;2.93;2.73;;;13.30;99.90;;;;;;4974632;28;20557;-63
2022/10/07 04:12:38;;;;;;;4.03;3.20;;;13.30;99.90;;;;;;4974105;28;20415;-64
2022/10/07 04:15:04;;;;;;;4.87;2.97;;;13.30;99.90;;;;;;4974719;28;20871;-63
2022/10/07 04:17:30;;;;;;;4.10;3.00;;;13.30;99.90;;;;;;4957352;28;20183;-63
2022/10/07 04:19:56;;;;;;;4.10;3.77;;;13.40;99.90;;;;;;4974725;28;20470;-64
2022/10/07 04:22:23;;;;;;;5.67;3.70;;;13.30;99.90;;;;;;4973850;28;20525;-65
2022/10/07 04:25:32;;;;;;;4.13;3.33;;;13.40;99.90;;;;;;4974401;28;20441;-63
2022/10/07 04:27:35;;;;;;;3.30;3.00;;;13.30;99.90;;;;;;4974472;28;20453;-64
2022/10/07 04:30:00;;;;;;;4.30;3.27;;;13.30;99.90;;;;;;4974493;28;20469;-64
2022/10/07 04:32:26;;;;;;;3.60;3.20;;;13.20;99.90;;;;;;4973651;28;20430;-63
2022/10/07 04:34:51;;;;;;;4.20;3.00;;;13.20;99.90;;;;;;4973239;28;20194;-65
2022/10/07 04:37:18;;;;;;;5.17;3.00;;;13.20;99.90;;;;;;4974013;28;20176;-64
2022/10/07 04:39:44;;;;;;;5.80;3.30;;;13.20;99.90;;;;;;4974342;28;20183;-64
2022/10/07 04:43:17;;;;;;;4.50;3.30;;;13.20;99.90;;;;;;4974456;28;20411;-64
2022/10/07 04:44:57;;;;;;;3.60;3.40;;;13.20;99.90;;;;;;4974009;28;20453;-64
2022/10/07 04:47:23;;;;;;;3.27;2.67;;;13.20;99.90;;;;;;4974046;28;20932;-64
2022/10/07 04:49:49;;;;;;;3.90;3.07;;;13.20;99.90;;;;;;4973793;28;20203;-65
2022/10/07 04:52:15;;;;;;;4.30;3.77;;;13.20;99.90;;;;;;4975367;28;20164;-65
2022/10/07 04:54:41;;;;;;;4.07;3.20;;;13.20;99.90;;;;;;4977866;28;20426;-64
2022/10/07 04:57:08;;;;;;;5.00;3.80;;;13.20;99.90;;;;;;4977883;28;20533;-64
2022/10/07 04:59:35;;;;;;;5.97;3.73;;;13.20;99.90;;;;;;4978248;28;20171;-64
2022/10/07 05:02:01;;;;;;;4.70;3.30;;;13.30;99.90;;;;;;4953855;28;20415;-66
2022/10/07 05:04:27;;;;;;;5.73;3.03;;;13.30;99.90;;;;;;4968553;28;21006;-64
2022/10/07 05:06:52;;;;;;;4.83;3.63;;;13.30;99.90;;;;;;4966211;28;20201;-65
2022/10/07 05:09:18;;;;;;;5.43;2.67;;;13.30;99.90;;;;;;4977458;28;20326;-65
2022/10/07 05:11:44;;;;;;;6.87;3.73;;;13.30;99.90;;;;;;4977891;28;20644;-65
2022/10/07 05:14:09;;;;;;;4.77;3.50;;;13.30;99.90;;;;;;4977132;28;20305;-64
2022/10/07 05:16:35;;;;;;;3.40;3.10;;;13.30;99.90;;;;;;4959958;28;20415;-65
2022/10/07 05:19:00;;;;;;;8.27;3.43;;;13.30;99.90;;;;;;4977474;28;20181;-64
2022/10/07 05:21:26;;;;;;;4.00;3.60;;;13.30;99.90;;;;;;4977627;28;20179;-64
2022/10/07 05:23:52;;;;;;;3.90;3.37;;;13.30;99.90;;;;;;4977322;28;20210;-64
2022/10/07 05:26:17;;;;;;;2.70;2.50;;;13.30;99.90;;;;;;4977028;28;20234;-66
2022/10/07 05:28:44;;;;;;;5.87;3.60;;;13.30;99.90;;;;;;4977599;28;20279;-65
2022/10/07 05:31:12;;;;;;;5.70;4.00;;;13.30;99.90;;;;;;4977318;28;20174;-65
2022/10/07 05:33:38;;;;;;;3.07;2.77;;;13.30;99.90;;;;;;4977080;28;20833;-64
2022/10/07 05:36:06;;;;;;;6.67;4.43;;;13.30;99.90;;;;;;4976572;28;20476;-66
2022/10/07 05:38:32;;;;;;;3.40;3.10;;;13.40;99.90;;;;;;4976943;28;20514;-65
2022/10/07 05:41:00;;;;;;;5.83;3.97;;;13.40;99.90;;;;;;4977405;28;20470;-64
2022/10/07 05:43:27;;;;;;;5.20;3.10;;;13.40;99.90;;;;;;4976885;28;20417;-65
2022/10/07 05:46:04;;;;;;;6.13;3.57;;;13.40;99.90;;;;;;4976011;28;20905;-65
2022/10/07 05:48:30;;;;;;;8.00;4.53;;;13.40;99.90;;;;;;4958703;28;20963;-64
2022/10/07 05:50:57;;;;;;;6.37;3.70;;;13.40;99.90;;;;;;4977042;28;20414;-64
2022/10/07 05:53:24;;;;;;;6.43;4.00;;;13.50;99.90;;;;;;4976728;28;20422;-65
2022/10/07 05:55:50;;;;;;;3.70;3.40;;;13.50;99.90;;;;;;4976851;28;20407;-65
2022/10/07 05:58:16;;;;;;;3.27;2.90;;;13.50;99.90;;;;;;4959491;28;20924;-64
2022/10/07 06:00:56;;;;;;;3.40;3.10;;;13.60;99.90;;;;;;4977306;28;20490;-64
2022/10/07 06:03:26;;;;;;;4.30;3.90;;;13.60;99.90;;;;;;4957830;28;21011;-64
2022/10/07 06:05:54;;;;;;;3.40;2.80;;;13.60;99.90;;;;;;4976404;28;20950;-65
2022/10/07 06:08:21;;;;;;;6.20;3.50;;;13.60;99.90;;;;;;4976321;28;20462;-64
2022/10/07 06:13:32;;;;;;;3.60;3.30;;;13.70;99.90;;;;;;4976757;28;20477;-64
2022/10/07 06:16:08;;;;;;;3.80;2.70;;;13.80;99.90;;;;;;4975929;28;20419;-64
2022/10/07 06:18:38;;;;;;;5.20;3.40;;;13.90;99.90;;;;;;4940402;29;20227;-64
2022/10/07 06:21:04;;;;;;;3.13;2.93;;;13.90;99.90;;;;;;4957129;29;20410;-65
2022/10/07 06:23:31;;;;;;;3.30;3.00;;;14.10;99.90;;;;;;4956744;29;20447;-65
2022/10/07 06:25:58;;;;;;;4.33;3.93;;;14.10;99.90;;;;;;4960643;28;20490;-64
2022/10/07 06:28:25;;;;;;;7.80;3.70;;;14.10;99.90;;;;;;4976375;28;20415;-64
2022/10/07 06:30:51;;;;;;;4.17;3.77;;;14.10;99.90;;;;;;4976541;28;20408;-65
2022/10/07 06:33:18;;;;;;;4.13;3.30;;;14.30;99.90;;;;;;4975740;28;20471;-64
2022/10/07 06:35:44;;;;;;;4.73;3.80;;;14.40;99.90;;;;;;4976011;28;20396;-64
2022/10/07 06:38:11;;;;;;;4.60;3.67;;;14.50;99.90;;;;;;4976002;28;20472;-64
2022/10/07 06:40:37;;;;;;;4.60;3.80;;;14.60;99.90;;;;;;4976053;28;20407;-64
2022/10/07 06:43:03;;;;;;;5.27;4.03;;;14.80;99.90;;;;;;4975892;28;20408;-64
2022/10/07 06:45:32;;;;;;;4.23;3.80;;;15.00;99.90;;;;;;4958794;28;20790;-64
2022/10/07 06:47:58;;;;;;;3.43;2.87;;;15.20;99.90;;;;;;4958549;28;20228;-65
2022/10/07 06:50:23;;;;;;;3.40;3.10;;;15.30;99.90;;;;;;4975348;28;20806;-64
2022/10/07 06:52:49;;;;;;;5.10;3.30;;;15.20;99.90;;;;;;4975653;28;20414;-65
2022/10/07 06:55:16;;;;;;;3.63;2.90;;;15.30;99.90;;;;;;4975955;28;20197;-65
2022/10/07 06:57:42;;;;;;;3.20;3.00;;;15.40;99.90;;;;;;4975706;28;20180;-64
2022/10/07 07:00:08;;;;;;;3.00;2.80;;;15.50;99.90;;;;;;4975885;28;20417;-65
2022/10/07 07:02:34;;;;;;;4.97;3.43;;;15.60;99.90;;;;;;4975679;28;20961;-66
2022/10/07 07:05:03;;;;;;;2.93;2.57;;;15.70;99.90;;;;;;4975725;28;20427;-64
2022/10/07 07:07:29;;;;;;;3.13;2.83;;;15.80;99.90;;;;;;4975373;28;20248;-65
2022/10/07 07:09:54;;;;;;;5.80;3.10;;;15.80;99.90;;;;;;4975349;28;20654;-66
2022/10/07 07:12:24;;;;;;;3.17;2.70;;;15.90;99.90;;;;;;4975039;28;20193;-70
2022/10/07 07:14:50;;;;;;;2.97;2.73;;;16.00;99.90;;;;;;4974954;28;20213;-67
2022/10/07 07:17:15;;;;;;;2.73;2.53;;;16.10;99.90;;;;;;4975170;28;20422;-66
2022/10/07 07:19:41;;;;;;;3.30;2.90;;;16.20;99.90;;;;;;4975311;28;20770;-66
2022/10/07 07:22:07;;;;;;;2.97;2.50;;;16.50;99.90;;;;;;4975578;28;20259;-65
2022/10/07 07:24:33;;;;;;;2.97;2.70;;;17.00;99.90;;;;;;4975154;28;20588;-65
2022/10/07 07:26:59;;;;;;;2.80;2.57;;;17.60;99.90;;;;;;4975164;28;20433;-66
2022/10/07 07:29:25;;;;;;;3.47;3.17;;;18.10;99.90;;;;;;4975205;28;20534;-67
2022/10/07 07:31:51;;;;;;;3.17;2.97;;;18.70;99.90;;;;;;4975269;28;20168;-68
2022/10/07 07:34:17;;;;;;;3.40;3.10;;;19.30;99.90;;;;;;4974747;28;20438;-69
2022/10/07 07:36:46;;;;;;;8.00;2.70;;;19.90;99.90;;;;;;4975050;28;20169;-69
2022/10/07 07:39:14;;;;;;;3.20;2.47;;;20.60;99.90;;;;;;4974776;28;20783;-67
2022/10/07 07:41:44;;;;;;;3.50;2.63;;;21.20;99.90;;;;;;4975219;28;20404;-67
2022/10/07 07:44:12;;;;;;;3.00;2.60;;;21.60;99.90;;;;;;4974587;28;20435;-67
2022/10/07 07:46:43;;;;;;;2.90;2.70;;;22.00;99.90;;;;;;4974605;28;20952;-69
2022/10/07 07:49:11;;;;;;;3.47;2.10;;;22.40;99.90;;;;;;4975070;28;20483;-71
2022/10/07 07:51:37;;;;;;;3.60;2.93;;;22.80;99.90;;;;;;4975068;28;20494;-70
2022/10/07 07:54:03;;;;;;;5.37;2.87;;;23.30;99.90;;;;;;4974645;28;20435;-70
2022/10/07 07:56:32;;;;;;;2.87;2.67;;;24.00;98.90;;;;;;4974680;28;20397;-70
2022/10/07 07:58:59;;;;;;;3.70;2.60;;;24.60;98.30;;;;;;4974823;28;20386;-68
2022/10/07 08:01:25;;;;;;;2.37;2.27;;;25.30;96.10;;;;;;4974787;28;20836;-72
2022/10/07 08:03:51;;;;;;;3.37;3.07;;;26.00;95.40;;;;;;4974275;28;20485;-70
2022/10/07 08:06:20;;;;;;;6.30;2.57;;;26.50;93.40;;;;;;4974502;28;20194;-68
2022/10/07 08:08:47;;;;;;;4.80;3.10;;;27.00;92.60;;;;;;4974467;28;21015;-67
2022/10/07 08:11:15;;;;;;;3.17;2.97;;;27.20;91.70;;;;;;4974260;28;20423;-71
2022/10/07 08:13:41;;;;;;;8.93;5.10;;;27.60;91.30;;;;;;4974154;28;20468;-70
2022/10/07 08:16:14;;;;;;;9.20;6.03;;;27.90;90.40;;;;;;4974416;28;20426;-69
2022/10/07 08:18:41;;;;;;;3.00;2.73;;;28.20;88.30;;;;;;4974834;28;20183;-71
2022/10/07 08:21:07;;;;;;;8.37;3.37;;;28.40;87.00;;;;;;4974572;28;20814;-69
2022/10/07 08:23:34;;;;;;;3.27;2.67;;;28.30;87.90;;;;;;4974210;28;20414;-66
2022/10/07 08:26:02;;;;;;;8.67;7.00;;;28.30;88.00;;;;;;4974310;28;20390;-65
2022/10/07 08:28:27;;;;;;;2.17;2.07;;;28.30;87.10;;;;;;4973656;28;20459;-66
2022/10/07 08:30:54;;;;;;;2.00;1.90;;;28.30;85.90;;;;;;4957087;28;20399;-65
2022/10/07 08:33:21;;;;;;;2.17;1.97;;;28.40;85.60;;;;;;4974214;28;20180;-65
2022/10/07 08:36:00;;;;;;;3.60;1.90;;;28.40;84.90;;;;;;4974380;28;20403;-65
2022/10/07 08:38:45;;;;;;;1.67;1.57;;;28.60;82.70;;;;;;4974263;28;20378;-65
2022/10/07 08:41:32;;;;;;;3.43;1.70;;;28.80;80.90;;;;;;4974318;28;20400;-64
2022/10/07 08:44:18;;;;;;;7.43;5.30;;;28.80;81.60;;;;;;4954872;29;20432;-65
2022/10/07 08:47:11;;;;;;;2.43;2.00;;;28.90;81.20;;;;;;4955064;29;20371;-66
2022/10/07 08:49:47;;;;;;;2.83;2.63;;;28.90;80.80;;;;;;4955086;29;20813;-65
2022/10/07 08:52:31;;;;;;;2.33;2.17;;;28.80;80.60;;;;;;4955122;29;20407;-65
2022/10/07 08:55:00;;;;;;;2.03;1.93;;;29.10;80.30;;;;;;4946900;28;20531;-65
2022/10/07 08:57:49;;;;;;;2.50;2.30;;;29.30;80.20;;;;;;4974192;28;20744;-64
2022/10/07 09:00:18;;;;;;;3.20;2.60;;;29.50;79.10;;;;;;4974283;28;20405;-64
2022/10/07 09:03:06;;;;;;;2.47;2.27;;;29.50;78.90;;;;;;4973896;28;20394;-64
2022/10/07 09:05:39;;;;;;;4.77;2.00;;;29.60;78.90;;;;;;4973907;28;20461;-66
2022/10/07 09:08:31;;;;;;;3.20;2.03;;;29.60;79.30;;;;;;4974140;28;20437;-64
2022/10/07 09:11:14;;;;;;;2.70;2.03;;;29.60;78.90;;;;;;4967851;28;20399;-66
2022/10/07 09:13:53;;;;;;;3.23;3.03;;;29.80;78.90;;;;;;4973647;28;20442;-65
2022/10/07 09:16:27;;;;;;;2.83;2.63;;;30.30;78.00;;;;;;4974228;28;20386;-64
2022/10/07 09:18:56;;;;;;;3.43;2.20;;;30.40;77.10;;;;;;4974242;28;20906;-66
2022/10/07 09:21:34;;;;;;;4.10;2.40;;;30.40;76.00;;;;;;4974025;28;20383;-62
2022/10/07 09:24:23;;;;;;;2.70;2.50;;;30.60;76.00;;;;;;4973272;28;20410;-63
2022/10/07 09:26:54;;;;;;;2.73;2.50;;;30.60;75.10;;;;;;4973666;28;20476;-65
2022/10/07 09:29:22;;;;;;;2.60;2.20;;;30.50;76.10;;;;;;4973568;28;20887;-64
2022/10/07 09:31:48;;;;;;;2.37;2.23;;;30.50;76.20;;;;;;4974038;28;20446;-62
2022/10/07 09:34:23;;;;;;;2.27;2.00;;;30.70;75.10;;;;;;4973239;28;20410;-63
2022/10/07 09:37:10;;;;;;;3.10;2.40;;;31.10;74.50;;;;;;4973759;28;20389;-63
2022/10/07 09:39:37;;;;;;;2.43;2.17;;;31.20;73.40;;;;;;4976698;28;20405;-63
2022/10/07 09:42:06;;;;;;;2.70;2.50;;;31.10;73.50;;;;;;4977353;28;20390;-62
2022/10/07 09:44:31;;;;;;;3.37;2.00;;;31.10;73.10;;;;;;4976767;28;20803;-63
2022/10/07 09:46:58;;;;;;;2.40;2.20;;;31.00;73.00;;;;;;4977125;28;20391;-63
2022/10/07 09:49:27;;;;;;;2.70;2.20;;;30.60;73.40;;;;;;4976977;28;20204;-62
2022/10/07 09:52:14;;;;;;;2.33;2.07;;;30.20;74.50;;;;;;4977211;28;20762;-63
2022/10/07 09:54:42;;;;;;;3.53;2.30;;;29.90;75.00;;;;;;4957440;29;20428;-63
2022/10/07 09:57:35;;;;;;;2.53;2.13;;;29.90;76.00;;;;;;4957755;29;20383;-62
2022/10/07 10:00:20;;;;;;;2.60;2.40;;;29.70;76.90;;;;;;4940648;29;20439;-63
2022/10/07 10:02:56;;;;;;;2.40;2.20;;;29.60;76.60;;;;;;4957301;29;20815;-62
2022/10/07 10:05:29;;;;;;;2.53;2.43;;;29.60;76.80;;;;;;4957371;29;20391;-64
2022/10/07 10:08:32;;;;;;;2.77;2.57;;;29.60;75.80;;;;;;4968640;28;20501;-63
2022/10/07 10:11:01;;;;;;;2.50;2.30;;;29.30;77.60;;;;;;4976833;28;20468;-62
2022/10/07 10:13:31;;;;;;;6.33;2.80;;;29.10;78.20;;;;;;4976078;28;20404;-62
2022/10/07 10:15:58;;;;;;;3.00;2.80;;;28.80;79.10;;;;;;4958965;28;20515;-63
2022/10/07 10:18:29;;;;;;;3.30;3.03;;;28.50;78.70;;;;;;4976723;28;20403;-61
2022/10/07 10:20:55;;;;;;;3.23;3.03;;;28.30;79.20;;;;;;4977396;28;20424;-63
2022/10/07 10:23:36;;;;;;;3.50;2.90;;;28.10;79.60;;;;;;4975828;28;20929;-63
2022/10/07 10:26:25;;;;;;;4.10;2.63;;;27.90;80.60;;;;;;4976744;28;20176;-63
2022/10/07 10:28:50;;;;;;;3.90;2.90;;;28.00;81.40;;;;;;4959098;28;20459;-65
2022/10/07 10:31:20;;;;;;;3.27;2.97;;;27.90;82.40;;;;;;4976204;28;20406;-65
2022/10/07 10:33:59;;;;;;;3.37;3.10;;;27.90;82.40;;;;;;4975971;28;20196;-65
2022/10/07 10:36:28;;;;;;;3.00;2.80;;;28.10;81.90;;;;;;4976411;28;20388;-63
2022/10/07 10:39:03;;;;;;;4.37;3.00;;;28.30;80.90;;;;;;4976182;28;20468;-63
2022/10/07 10:41:40;;;;;;;3.37;3.17;;;28.20;81.40;;;;;;4976630;28;20403;-69
2022/10/07 10:44:19;;;;;;;3.60;3.30;;;28.00;80.20;;;;;;4975616;28;20418;-68
2022/10/07 10:47:25;;;;;;;4.30;3.90;;;27.40;81.00;;;;;;4975850;28;20454;-68
2022/10/07 10:50:14;;;;;;;3.57;3.27;;;27.00;83.30;;;;;;4975140;28;20463;-68
2022/10/07 10:53:02;;;;;;;3.40;3.10;;;26.80;86.10;;;;;;4975834;28;20415;-67
2022/10/07 10:56:05;;;;;;;3.70;3.40;;;26.60;86.10;;;;;;4975514;28;20439;-66
2022/10/07 10:58:43;;;;;;;7.57;5.17;;;26.50;86.10;;;;;;4975823;28;20435;-66
2022/10/07 11:01:22;;;;;;;4.10;3.80;;;26.40;87.00;;;;;;4958042;28;20423;-66
2022/10/07 11:04:17;;;;;;;4.70;3.93;;;26.20;88.10;;;;;;4957974;28;20451;-63
2022/10/07 11:06:49;;;;;;;4.30;3.70;;;25.70;88.40;;;;;;4972244;28;20456;-66
2022/10/07 11:09:20;;;;;;;3.43;3.13;;;25.20;89.80;;;;;;4975517;28;20441;-65
2022/10/07 11:11:45;;;;;;;3.87;3.57;;;24.60;91.20;;;;;;4975509;28;20417;-62
2022/10/07 11:14:16;;;;;;;3.87;3.57;;;24.20;91.70;;;;;;4974541;28;20862;-66
2022/10/07 11:16:51;;;;;;;6.30;3.83;;;24.00;91.80;;;;;;4975085;28;20534;-67
2022/10/07 11:19:37;;;;;;;3.50;3.20;;;23.70;92.50;;;;;;4975235;28;20407;-65
2022/10/07 11:22:10;;;;;;;6.90;3.60;;;23.50;92.60;;;;;;4974419;28;20439;-67
2022/10/07 11:24:45;;;;;;;4.87;3.50;;;23.20;93.00;;;;;;4974693;28;20514;-64
2022/10/07 11:27:23;;;;;;;3.90;3.30;;;22.90;94.10;;;;;;4957846;28;21001;-66
2022/10/07 11:30:10;;;;;;;3.43;3.23;;;22.80;93.70;;;;;;4975112;28;20463;-66
2022/10/07 11:32:49;;;;;;;3.40;3.13;;;22.60;94.30;;;;;;4975013;28;20412;-65
2022/10/07 11:35:36;;;;;;;4.30;3.90;;;22.50;94.90;;;;;;4975241;28;20476;-62
2022/10/07 11:38:12;;;;;;;3.90;3.60;;;22.30;94.40;;;;;;4975105;28;20419;-64
2022/10/07 11:41:00;;;;;;;4.67;3.90;;;22.20;94.60;;;;;;4975044;28;20422;-63
2022/10/07 11:43:34;;;;;;;6.00;4.00;;;22.10;94.60;;;;;;4957815;28;20428;-64
2022/10/07 11:46:29;;;;;;;5.00;4.50;;;22.00;95.30;;;;;;4974779;28;20934;-64
2022/10/07 11:49:23;;;;;;;4.37;3.70;;;21.80;95.80;;;;;;4961902;28;20474;-64
2022/10/07 11:52:23;;;;;;;4.60;3.80;;;21.70;96.50;;;;;;4975151;28;20904;-64
2022/10/07 11:55:04;;;;;;;4.77;3.47;;;21.70;96.50;;;;;;4974654;28;20511;-63
2022/10/07 11:57:33;;;;;;;3.87;3.47;;;21.60;96.70;;;;;;4975051;28;20407;-63
2022/10/07 12:00:06;;;;;;;4.90;4.13;;;21.70;96.80;;;;;;4974255;28;20439;-64
2022/10/07 12:02:39;;;;;;;5.40;4.37;;;21.60;97.10;;;;;;4974407;28;20419;-69
2022/10/07 12:05:07;;;;;;;8.70;3.87;;;21.70;97.00;;;;;;4974666;28;20427;-69
2022/10/07 12:07:35;;;;;;;4.17;3.77;;;21.70;96.80;;;;;;4974472;28;20437;-68
2022/10/07 12:10:02;;;;;;;4.10;3.70;;;21.70;96.60;;;;;;4974519;28;20930;-68
2022/10/07 12:12:45;;;;;;;5.60;3.97;;;21.70;97.20;;;;;;4974430;28;20408;-68
2022/10/07 12:15:40;;;;;;;6.10;4.33;;;21.70;97.40;;;;;;4974099;28;20798;-68
2022/10/07 12:18:06;;;;;;;4.90;4.50;;;21.70;96.60;;;;;;4966542;28;20420;-69
2022/10/07 12:20:48;;;;;;;4.57;4.03;;;21.50;97.10;;;;;;4957280;28;20430;-68
2022/10/07 12:23:17;;;;;;;5.00;4.60;;;21.40;97.10;;;;;;4959569;28;20639;-68
2022/10/07 12:25:53;;;;;;;4.27;3.87;;;21.20;97.70;;;;;;4974516;28;21081;-63
2022/10/07 12:28:30;;;;;;;5.47;3.60;;;21.20;97.80;;;;;;4974677;28;20501;-62
2022/10/07 12:30:59;;;;;;;4.33;3.93;;;21.10;98.10;;;;;;4974564;28;20428;-65
2022/10/07 12:33:28;;;;;;;3.93;3.63;;;21.10;98.40;;;;;;4974088;28;20447;-65
2022/10/07 12:35:54;;;;;;;4.13;3.83;;;21.00;98.20;;;;;;4974312;28;20426;-64
2022/10/07 12:38:29;;;;;;;4.00;3.70;;;21.00;98.60;;;;;;4974363;28;20408;-64
2022/10/07 12:41:09;;;;;;;6.37;3.83;;;21.00;98.90;;;;;;4974521;28;20253;-65
2022/10/07 12:43:35;;;;;;;4.80;4.40;;;21.00;99.20;;;;;;4973830;28;20443;-65
2022/10/07 12:46:08;;;;;;;6.83;3.83;;;21.10;98.70;;;;;;4974541;28;20403;-65
2022/10/07 12:48:41;;;;;;;3.90;3.60;;;21.10;98.40;;;;;;4973941;28;20179;-65
2022/10/07 12:51:18;;;;;;;6.30;4.20;;;21.10;98.40;;;;;;4974414;28;20418;-64
2022/10/07 12:53:46;;;;;;;5.27;4.77;;;21.00;98.80;;;;;;4974088;28;20500;-64
2022/10/07 12:56:36;;;;;;;4.33;3.93;;;20.90;98.90;;;;;;4974398;28;20506;-64
2022/10/07 13:02:43;;;;;;;5.90;4.60;;;20.80;99.30;;;;;;4974073;28;20975;-64
2022/10/07 13:05:30;;;;;;;4.07;3.70;;;20.80;99.10;;;;;;4974158;28;20467;-64
2022/10/07 13:08:14;;;;;;;4.60;4.20;;;20.80;99.80;;;;;;4974491;28;20487;-64
2022/10/07 13:10:51;;;;;;;4.50;3.80;;;20.80;99.90;;;;;;4974088;28;20973;-64
2022/10/07 13:14:00;;;;;;;4.00;3.60;;;20.80;99.90;;;;;;4974917;28;20407;-64
2022/10/07 13:16:34;;;;;;;3.97;3.50;;;20.90;99.90;;;;;;4977695;28;20777;-64
2022/10/07 13:19:13;;;;;;;4.10;3.80;;;20.80;99.90;;;;;;4977921;28;20399;-64
2022/10/07 13:21:44;;;;;;;4.20;3.80;;;20.90;99.90;;;;;;4977920;28;20472;-64
2022/10/07 13:24:17;;;;;;;4.60;4.00;;;21.00;99.90;;;;;;4977428;28;20933;-64
2022/10/07 13:26:44;;;;;;;3.90;3.60;;;21.00;99.90;;;;;;4977757;28;20447;-64
2022/10/07 13:29:23;;;;;;;4.13;3.60;;;21.00;99.90;;;;;;4977578;28;20562;-64
2022/10/07 13:32:16;;;;;;;4.40;4.00;;;20.90;99.90;;;;;;4959893;28;20415;-64
2022/10/07 13:34:45;;;;;;;3.67;3.37;;;20.90;99.50;;;;;;4966818;28;20443;-64
2022/10/07 13:37:32;;;;;;;3.97;3.67;;;20.90;99.50;;;;;;4977455;28;20407;-64
2022/10/07 13:40:18;;;;;;;5.23;4.50;;;20.80;99.90;;;;;;4977129;28;20495;-64
2022/10/07 13:42:44;;;;;;;3.97;3.57;;;20.80;99.90;;;;;;4976801;28;20443;-64
2022/10/07 13:45:14;;;;;;;4.10;3.70;;;20.70;99.90;;;;;;4977074;28;20462;-64
2022/10/07 13:47:42;;;;;;;6.80;3.97;;;20.70;99.90;;;;;;4977103;28;20898;-64
2022/10/07 13:50:15;;;;;;;6.63;3.57;;;20.60;99.90;;;;;;4977058;28;20956;-64
2022/10/07 13:52:45;;;;;;;6.13;4.37;;;20.60;99.90;;;;;;4976833;28;20412;-64
2022/10/07 13:55:30;;;;;;;4.43;4.03;;;20.50;99.90;;;;;;4977171;28;20443;-64
2022/10/07 13:57:59;;;;;;;4.30;3.70;;;20.40;99.90;;;;;;4977172;28;20396;-64
2022/10/07 14:00:27;;;;;;;5.63;4.40;;;20.30;99.90;;;;;;4977263;28;20778;-64
2022/10/07 14:02:53;;;;;;;4.30;3.80;;;20.20;99.90;;;;;;4976773;28;20528;-64
2022/10/07 14:05:18;;;;;;;3.90;3.57;;;20.20;99.90;;;;;;4976965;28;20449;-64
2022/10/07 14:07:44;;;;;;;4.13;3.83;;;20.20;99.90;;;;;;4976803;28;20506;-64
2022/10/07 14:10:11;;;;;;;5.90;4.27;;;20.10;99.90;;;;;;4976699;28;20239;-64
2022/10/07 14:12:45;;;;;;;3.93;3.60;;;20.10;99.90;;;;;;4959550;28;20514;-64
2022/10/07 14:15:18;;;;;;;8.13;3.77;;;20.10;99.90;;;;;;4976866;28;20431;-64
2022/10/07 14:17:50;;;;;;;3.93;3.63;;;20.10;99.90;;;;;;4976336;28;20419;-64
2022/10/07 14:20:37;;;;;;;4.50;3.40;;;20.10;99.90;;;;;;4976104;28;20423;-64
2022/10/07 14:23:20;;;;;;;3.73;3.43;;;20.10;99.90;;;;;;4879282;29;20836;-65
2022/10/07 14:25:46;;;;;;;4.37;4.00;;;20.00;99.90;;;;;;4878725;29;20863;-64
2022/10/07 14:28:17;;;;;;;4.20;3.90;;;20.00;99.90;;;;;;4879523;29;20439;-65
2022/10/07 14:36:22;;;;;;;4.63;3.60;;;19.90;99.90;;;;;;4878868;29;20435;-64
2022/10/07 14:38:50;;;;;;;4.83;4.33;;;19.90;99.90;;;;;;4879028;29;20395;-65
2022/10/07 14:41:19;;;;;;;3.40;3.10;;;19.90;99.90;;;;;;4879286;29;20285;-64
2022/10/07 14:43:47;;;;;;;6.53;3.67;;;19.90;99.90;;;;;;4878789;29;20915;-64
2022/10/07 14:46:22;;;;;;;6.17;5.60;;;19.90;99.90;;;;;;4879045;29;20939;-64
2022/10/07 14:48:48;;;;;;;8.07;6.40;;;19.80;99.90;;;;;;4863557;29;20416;-64
2022/10/07 14:51:20;;;;;;;3.83;3.53;;;19.70;99.90;;;;;;4879195;29;20423;-64
2022/10/07 14:53:48;;;;;;;3.93;3.53;;;19.70;99.90;;;;;;4863398;29;20447;-64
2022/10/07 14:56:35;;;;;;;4.40;4.00;;;19.70;99.90;;;;;;4879043;29;20416;-64
2022/10/07 14:59:01;;;;;;;4.03;3.73;;;19.70;99.90;;;;;;4882587;29;20521;-64
2022/10/07 15:01:28;;;;;;;3.33;3.13;;;19.60;99.90;;;;;;4956827;29;20416;-64
2022/10/07 15:03:57;;;;;;;5.00;4.50;;;19.60;99.90;;;;;;4956141;29;20571;-64
2022/10/07 15:06:23;;;;;;;3.27;3.07;;;19.60;99.90;;;;;;4956245;29;20503;-64
2022/10/07 15:08:49;;;;;;;3.77;3.47;;;19.50;99.90;;;;;;4968234;28;20506;-64
2022/10/07 15:11:17;;;;;;;6.00;3.57;;;19.50;99.90;;;;;;4975589;28;20512;-64
2022/10/07 15:13:46;;;;;;;4.77;3.67;;;19.50;99.90;;;;;;4975179;28;20207;-64
2022/10/07 15:16:17;;;;;;;3.73;3.43;;;19.50;99.90;;;;;;4975768;28;20412;-64
2022/10/07 15:18:43;;;;;;;3.90;3.40;;;19.40;99.90;;;;;;4975828;28;20747;-64
2022/10/07 15:21:09;;;;;;;11.30;4.20;;;19.40;99.90;;;;;;4975540;28;20400;-64
2022/10/07 15:23:34;;;;;;;8.10;5.00;;;19.40;99.90;;;;;;4975055;28;20446;-64
2022/10/07 15:26:01;;;;;;;6.93;4.20;;;19.30;99.90;;;;;;4975623;28;20172;-64
2022/10/07 15:28:28;;;;;;;4.30;4.00;;;19.30;99.90;;;;;;4975362;28;20194;-64
2022/10/07 15:31:04;;;;;;;6.47;4.37;;;19.30;99.90;;;;;;4975448;28;21009;-64
2022/10/07 15:33:31;;;;;;;3.73;3.43;;;19.20;99.90;;;;;;4975100;28;20431;-64
2022/10/07 15:35:57;;;;;;;4.77;4.20;;;19.20;99.90;;;;;;4974975;28;20490;-64
2022/10/07 15:38:27;;;;;;;6.43;3.87;;;19.20;99.90;;;;;;4974982;28;20398;-64
2022/10/07 15:40:58;;;;;;;3.60;3.30;;;19.20;99.90;;;;;;4975244;28;20792;-63
2022/10/07 15:43:24;;;;;;;7.73;4.00;;;19.10;99.90;;;;;;4974760;28;20411;-64
2022/10/07 15:45:50;;;;;;;5.47;4.03;;;19.00;99.90;;;;;;4975092;28;20415;-63
2022/10/07 15:48:22;;;;;;;3.70;3.40;;;18.90;99.90;;;;;;4957598;28;20412;-64
2022/10/07 15:50:49;;;;;;;4.97;4.00;;;18.80;99.90;;;;;;4974889;28;20545;-63
2022/10/07 15:53:16;;;;;;;6.63;5.10;;;18.80;99.90;;;;;;4974265;28;20423;-64
2022/10/07 15:56:02;;;;;;;4.50;4.10;;;18.70;99.90;;;;;;4975060;28;20443;-64
2022/10/07 15:58:29;;;;;;;4.53;4.00;;;18.60;99.90;;;;;;4974372;28;20423;-63
2022/10/07 16:01:06;;;;;;;4.27;3.87;;;18.50;99.90;;;;;;4974948;28;20474;-63
2022/10/07 16:03:38;;;;;;;4.30;4.00;;;18.50;99.90;;;;;;4974459;28;20486;-64
2022/10/07 16:06:09;;;;;;;5.40;5.00;;;18.40;99.90;;;;;;4974512;28;20440;-63
2022/10/07 16:08:35;;;;;;;4.37;4.07;;;18.30;99.90;;;;;;4974443;28;20422;-63
2022/10/07 16:11:06;;;;;;;6.90;5.43;;;18.30;99.90;;;;;;4974928;28;20436;-63
2022/10/07 16:13:37;;;;;;;6.23;3.90;;;18.20;99.90;;;;;;4974405;28;20427;-63
2022/10/07 16:16:06;;;;;;;3.93;3.53;;;18.20;99.90;;;;;;4957585;28;20419;-63
2022/10/07 16:18:36;;;;;;;4.30;3.90;;;18.10;99.90;;;;;;4974221;28;20447;-63
2022/10/07 16:21:23;;;;;;;3.47;3.17;;;18.00;99.90;;;;;;4957226;28;21328;-64
2022/10/07 16:23:53;;;;;;;3.90;3.60;;;18.00;99.90;;;;;;4937668;29;20941;-63
2022/10/07 16:26:21;;;;;;;4.20;3.90;;;17.90;99.90;;;;;;4943774;28;20944;-65
2022/10/07 16:31:35;;;;;;;4.43;4.03;;;17.80;99.90;;;;;;4974698;28;20458;-65
2022/10/07 16:34:04;;;;;;;4.93;4.43;;;17.80;99.90;;;;;;4973939;28;20469;-65
2022/10/07 16:36:30;;;;;;;4.07;3.47;;;17.70;99.90;;;;;;4973648;28;20460;-63
2022/10/07 16:38:58;;;;;;;4.87;4.47;;;17.70;99.90;;;;;;4974534;28;20434;-64
2022/10/07 16:41:25;;;;;;;4.00;3.60;;;17.60;99.90;;;;;;4974518;28;20189;-65
2022/10/07 16:43:50;;;;;;;4.83;4.07;;;17.50;99.90;;;;;;4973500;28;20443;-65
2022/10/07 16:46:19;;;;;;;5.50;4.07;;;17.50;99.90;;;;;;4974268;28;20406;-64
2022/10/07 16:48:47;;;;;;;4.80;4.40;;;17.40;99.90;;;;;;4976336;28;20536;-68
2022/10/07 16:51:16;;;;;;;4.67;4.27;;;17.30;99.90;;;;;;4978318;28;20744;-68
2022/10/07 16:53:47;;;;;;;4.17;3.77;;;17.20;99.90;;;;;;4977479;28;20449;-68
2022/10/07 16:56:14;;;;;;;8.87;5.03;;;17.20;99.90;;;;;;4978024;28;20895;-67
2022/10/07 16:58:40;;;;;;;5.50;4.70;;;17.20;99.90;;;;;;4977916;28;20756;-69
2022/10/07 17:01:12;;;;;;;6.17;5.57;;;17.10;99.90;;;;;;4960826;28;20425;-67
2022/10/07 17:03:39;;;;;;;8.40;4.60;;;17.10;99.90;;;;;;4977502;28;20434;-68
2022/10/07 17:06:06;;;;;;;4.93;4.23;;;17.00;99.90;;;;;;4977901;28;20436;-69
2022/10/07 17:08:33;;;;;;;4.20;3.90;;;17.00;99.90;;;;;;4977934;28;20408;-70
2022/10/07 17:11:00;;;;;;;4.10;3.70;;;17.00;99.90;;;;;;4960511;28;20465;-67
2022/10/07 17:13:26;;;;;;;4.10;3.70;;;16.90;99.90;;;;;;4977591;28;20887;-69
2022/10/07 17:15:51;;;;;;;4.27;3.90;;;16.80;99.90;;;;;;4977566;28;20429;-68
2022/10/07 17:18:17;;;;;;;4.20;3.60;;;16.70;99.90;;;;;;4977609;28;20412;-69
2022/10/07 17:20:50;;;;;;;3.80;3.50;;;16.70;99.90;;;;;;4977346;28;20213;-69
2022/10/07 17:23:16;;;;;;;5.13;3.60;;;16.60;99.90;;;;;;4976908;28;20174;-69
2022/10/07 17:25:45;;;;;;;5.70;4.73;;;16.50;99.90;;;;;;4977616;28;20444;-68
2022/10/07 17:28:12;;;;;;;5.33;4.70;;;16.50;99.90;;;;;;4977338;28;20829;-72
2022/10/07 17:30:37;;;;;;;5.47;4.57;;;16.50;99.90;;;;;;4977414;28;20507;-68
2022/10/07 17:33:03;;;;;;;4.90;4.40;;;16.50;99.90;;;;;;4959837;28;20933;-70